Time;durP1;ratioP1;P1;durP2;ratioP2;P2;SDS_P1;SDS_P2;PMS_P1;PMS_P2;Temp;Humidity;BMP_temperature;BMP_pressure;BME280_temperature;BME280_humidity;BME280_pressure;Samples;Min_cycle;Max_cycle;Signal;HPM_P1;HPM_P2
2022/10/30 00:01:57;;;;;;;10.13;7.10;;;13.70;99.90;;;;;;5073043;28;20208;-76
2022/10/30 00:04:23;;;;;;;8.27;6.65;;;13.70;99.90;;;;;;5066266;28;20270;-75
2022/10/30 00:06:49;;;;;;;11.68;7.53;;;13.60;99.90;;;;;;5070152;28;20666;-75
2022/10/30 00:09:14;;;;;;;9.45;6.82;;;13.60;99.90;;;;;;5074443;28;20176;-75
2022/10/30 00:11:40;;;;;;;10.00;6.85;;;13.60;99.90;;;;;;5069023;28;20181;-75
2022/10/30 00:14:07;;;;;;;8.93;6.72;;;13.50;99.90;;;;;;5070507;28;20172;-76
2022/10/30 00:16:33;;;;;;;11.40;7.05;;;13.40;99.90;;;;;;5073691;28;20199;-78
2022/10/30 00:18:59;;;;;;;8.90;6.88;;;13.30;99.90;;;;;;5081327;28;20203;-77
2022/10/30 00:21:24;;;;;;;9.80;7.50;;;13.30;99.90;;;;;;5071776;28;20183;-77
2022/10/30 00:23:52;;;;;;;8.90;6.80;;;13.30;99.90;;;;;;5071209;28;20171;-76
2022/10/30 00:26:19;;;;;;;7.05;6.40;;;13.20;99.90;;;;;;5068635;28;20218;-77
2022/10/30 00:28:52;;;;;;;8.50;7.47;;;13.20;99.90;;;;;;5067770;28;20244;-75
2022/10/30 00:31:18;;;;;;;10.82;7.07;;;13.20;99.90;;;;;;5080048;28;20183;-76
2022/10/30 00:33:47;;;;;;;10.63;7.65;;;13.10;99.90;;;;;;5070397;28;20851;-76
2022/10/30 00:36:13;;;;;;;9.65;7.53;;;13.10;99.90;;;;;;5080237;28;20207;-76
2022/10/30 00:38:38;;;;;;;9.75;7.28;;;13.00;99.90;;;;;;5073468;28;20226;-76
2022/10/30 00:41:04;;;;;;;8.63;7.45;;;13.00;99.90;;;;;;5067282;28;20179;-76
2022/10/30 00:43:32;;;;;;;9.50;7.10;;;13.10;99.90;;;;;;5074234;28;20188;-76
2022/10/30 00:46:30;;;;;;;8.63;7.72;;;13.10;99.90;;;;;;5069846;28;20242;-74
2022/10/30 00:48:59;;;;;;;9.73;7.55;;;13.10;99.90;;;;;;5070200;28;20225;-80
2022/10/30 00:51:27;;;;;;;8.60;7.65;;;13.00;99.90;;;;;;5067705;28;20167;-76
2022/10/30 00:53:58;;;;;;;8.02;7.22;;;13.00;99.90;;;;;;5069197;28;20831;-76
2022/10/30 00:56:24;;;;;;;8.90;7.13;;;13.00;99.90;;;;;;5067292;28;20263;-76
2022/10/30 00:58:56;;;;;;;9.52;8.23;;;13.00;99.90;;;;;;5070581;28;20230;-75
2022/10/30 01:01:25;;;;;;;13.45;8.52;;;13.00;99.90;;;;;;5067224;28;20228;-75
2022/10/30 01:03:55;;;;;;;10.05;8.20;;;12.90;99.90;;;;;;5062744;28;20175;-75
2022/10/30 01:06:23;;;;;;;10.63;7.82;;;12.90;99.90;;;;;;5078339;28;20196;-75
2022/10/30 01:08:50;;;;;;;9.48;7.97;;;12.90;99.90;;;;;;5087026;28;20179;-76
2022/10/30 01:11:16;;;;;;;13.07;8.18;;;12.80;99.90;;;;;;5070731;28;20646;-76
2022/10/30 01:13:44;;;;;;;16.63;7.75;;;12.80;99.90;;;;;;5073304;28;20208;-75
2022/10/30 01:16:34;;;;;;;8.40;6.50;;;12.80;99.90;;;;;;5072484;28;20254;-77
2022/10/30 01:19:17;;;;;;;7.90;6.38;;;12.70;99.90;;;;;;5073027;28;20199;-76
2022/10/30 01:22:01;;;;;;;9.18;6.90;;;12.70;99.90;;;;;;5064394;28;20810;-76
2022/10/30 01:24:35;;;;;;;10.77;7.15;;;12.70;99.90;;;;;;5069893;28;20541;-75
2022/10/30 01:27:21;;;;;;;8.25;6.57;;;12.70;99.90;;;;;;5073707;28;20187;-78
2022/10/30 01:30:08;;;;;;;10.35;7.25;;;12.60;99.90;;;;;;5072807;28;20171;-76
2022/10/30 01:32:58;;;;;;;10.18;7.55;;;12.60;99.90;;;;;;5067007;28;20178;-76
2022/10/30 01:35:53;;;;;;;7.20;6.53;;;12.50;99.90;;;;;;5076312;28;20186;-75
2022/10/30 01:38:50;;;;;;;12.48;7.18;;;12.40;99.90;;;;;;5067564;28;20215;-75
2022/10/30 01:41:16;;;;;;;13.43;7.82;;;12.30;99.90;;;;;;5074478;28;20199;-76
2022/10/30 01:43:44;;;;;;;12.10;8.23;;;12.30;99.90;;;;;;5076263;28;20186;-76
2022/10/30 01:46:41;;;;;;;11.02;8.02;;;12.30;99.90;;;;;;5070136;28;20216;-77
2022/10/30 01:49:37;;;;;;;11.38;8.35;;;12.30;99.90;;;;;;5068617;28;20222;-75
2022/10/30 01:52:16;;;;;;;11.15;7.60;;;12.30;99.90;;;;;;5071379;28;20172;-77
2022/10/30 01:55:15;;;;;;;9.13;7.80;;;12.30;99.90;;;;;;5062212;28;20190;-75
2022/10/30 01:57:50;;;;;;;12.68;8.52;;;12.40;99.90;;;;;;5067783;28;20210;-75
2022/10/30 02:00:18;;;;;;;13.77;8.75;;;12.40;99.90;;;;;;5070931;28;20168;-75
2022/10/30 02:02:45;;;;;;;11.70;7.82;;;12.40;99.90;;;;;;5069706;28;20171;-76
2022/10/30 02:05:19;;;;;;;8.60;7.25;;;12.40;99.90;;;;;;5065669;28;20176;-76
2022/10/30 02:07:44;;;;;;;9.93;7.63;;;12.50;99.90;;;;;;5062340;28;20187;-76
2022/10/30 02:10:11;;;;;;;11.02;7.63;;;12.50;99.90;;;;;;5070653;28;20558;-76
2022/10/30 02:12:36;;;;;;;10.43;7.50;;;12.50;99.90;;;;;;5072714;28;20178;-77
2022/10/30 02:15:02;;;;;;;13.48;8.00;;;12.50;99.90;;;;;;5072286;28;20195;-77
2022/10/30 02:17:28;;;;;;;9.52;6.88;;;12.50;99.90;;;;;;5075879;28;20198;-76
2022/10/30 02:19:54;;;;;;;12.45;8.05;;;12.50;99.90;;;;;;5074194;28;20168;-76
2022/10/30 02:22:20;;;;;;;12.63;7.68;;;12.50;99.90;;;;;;5069860;28;20187;-75
2022/10/30 02:24:45;;;;;;;9.45;8.02;;;12.50;99.90;;;;;;5066661;28;20183;-75
2022/10/30 02:27:11;;;;;;;8.57;7.05;;;12.50;99.90;;;;;;5071881;28;20203;-75
2022/10/30 02:29:37;;;;;;;10.25;7.13;;;12.60;99.90;;;;;;5076462;28;20171;-76
2022/10/30 02:32:03;;;;;;;12.18;7.65;;;12.60;99.90;;;;;;5071491;28;20187;-76
2022/10/30 02:34:28;;;;;;;9.15;7.38;;;12.70;99.90;;;;;;5070582;28;20190;-77
2022/10/30 02:36:54;;;;;;;11.70;6.95;;;12.70;99.90;;;;;;5071187;28;20209;-76
2022/10/30 02:39:20;;;;;;;10.73;7.60;;;12.70;99.90;;;;;;5075879;28;20560;-77
2022/10/30 02:41:46;;;;;;;10.88;7.38;;;12.70;99.90;;;;;;5061602;28;20329;-77
2022/10/30 02:44:12;;;;;;;11.00;6.60;;;12.70;99.90;;;;;;5070112;28;20172;-79
2022/10/30 02:46:38;;;;;;;9.05;7.93;;;12.70;99.90;;;;;;5062875;28;20532;-77
2022/10/30 02:49:03;;;;;;;11.15;7.18;;;12.70;99.90;;;;;;5074588;28;20172;-76
2022/10/30 02:51:32;;;;;;;8.65;7.35;;;12.70;99.90;;;;;;5072063;28;20258;-75
2022/10/30 02:53:58;;;;;;;10.85;7.30;;;12.70;99.90;;;;;;5069084;28;20175;-76
2022/10/30 02:56:24;;;;;;;10.27;7.45;;;12.70;99.90;;;;;;5069265;28;22082;-75
2022/10/30 02:58:50;;;;;;;7.72;7.03;;;12.70;99.90;;;;;;5075150;28;20191;-76
2022/10/30 03:01:18;;;;;;;9.38;7.05;;;12.70;99.90;;;;;;5069646;28;20171;-75
2022/10/30 03:03:45;;;;;;;10.60;6.97;;;12.70;99.90;;;;;;5065948;28;20180;-77
2022/10/30 03:06:14;;;;;;;10.90;7.25;;;12.70;99.90;;;;;;5067089;28;20206;-76
2022/10/30 03:08:40;;;;;;;13.20;7.57;;;12.70;99.90;;;;;;5067273;28;20185;-76
2022/10/30 03:11:13;;;;;;;11.93;8.02;;;12.70;99.90;;;;;;5069915;28;20176;-76
2022/10/30 03:13:40;;;;;;;9.90;7.18;;;12.70;99.90;;;;;;5072448;28;20181;-76
2022/10/30 03:16:10;;;;;;;10.45;7.55;;;12.60;99.90;;;;;;5056929;28;20207;-75
2022/10/30 03:18:36;;;;;;;15.23;7.25;;;12.60;99.90;;;;;;5066595;28;20206;-75
2022/10/30 03:21:04;;;;;;;9.85;7.28;;;12.60;99.90;;;;;;5069404;28;20206;-76
2022/10/30 03:23:30;;;;;;;8.90;5.90;;;12.50;99.90;;;;;;5061334;28;20190;-75
2022/10/30 03:25:57;;;;;;;7.15;6.25;;;12.60;99.90;;;;;;5063877;28;20195;-75
2022/10/30 03:28:25;;;;;;;12.75;7.07;;;12.70;99.90;;;;;;5069319;28;20186;-75
2022/10/30 03:30:56;;;;;;;15.23;7.57;;;12.60;99.90;;;;;;5071186;28;20188;-75
2022/10/30 03:33:22;;;;;;;13.38;7.50;;;12.50;99.90;;;;;;5076792;28;20175;-75
2022/10/30 03:35:47;;;;;;;11.23;7.25;;;12.40;99.90;;;;;;5067905;28;20285;-75
2022/10/30 03:38:13;;;;;;;10.35;7.05;;;12.40;99.90;;;;;;5069446;28;20620;-76
2022/10/30 03:40:39;;;;;;;10.10;6.82;;;12.30;99.90;;;;;;5055543;28;20184;-77
2022/10/30 03:43:05;;;;;;;7.68;6.88;;;12.30;99.90;;;;;;5065711;28;20274;-76
2022/10/30 03:45:35;;;;;;;9.23;7.28;;;12.20;99.90;;;;;;5063132;28;20222;-76
2022/10/30 03:48:01;;;;;;;10.73;7.35;;;12.20;99.90;;;;;;5059665;28;20179;-76
2022/10/30 03:50:27;;;;;;;12.80;7.70;;;12.20;99.90;;;;;;5061513;28;20187;-77
2022/10/30 03:52:54;;;;;;;9.65;6.68;;;12.20;99.90;;;;;;5057392;28;20168;-77
2022/10/30 03:55:20;;;;;;;8.52;7.13;;;12.10;99.90;;;;;;5056768;28;20191;-76
2022/10/30 03:57:45;;;;;;;12.38;7.53;;;12.20;99.90;;;;;;5058800;28;20281;-77
2022/10/30 04:00:12;;;;;;;9.15;6.60;;;12.20;99.90;;;;;;5057056;28;20299;-77
2022/10/30 04:02:38;;;;;;;11.18;7.57;;;12.20;99.90;;;;;;5058799;28;20265;-76
2022/10/30 04:05:04;;;;;;;9.80;7.07;;;12.10;99.90;;;;;;5056434;28;20211;-77
2022/10/30 04:07:32;;;;;;;10.90;7.15;;;12.00;99.90;;;;;;5052935;28;20187;-76
2022/10/30 04:09:58;;;;;;;9.60;7.38;;;12.00;99.90;;;;;;5054823;28;20266;-76
2022/10/30 04:12:23;;;;;;;10.88;7.68;;;11.90;99.90;;;;;;5056706;28;20626;-76
2022/10/30 04:14:49;;;;;;;8.88;6.88;;;12.00;99.90;;;;;;5058408;28;20182;-76
2022/10/30 04:17:15;;;;;;;9.27;6.90;;;11.90;99.90;;;;;;5057375;28;20688;-76
2022/10/30 04:19:40;;;;;;;9.77;7.32;;;12.00;99.90;;;;;;5063336;28;20552;-76
2022/10/30 04:22:06;;;;;;;8.98;7.95;;;12.00;99.90;;;;;;5057567;28;20182;-76
2022/10/30 04:24:31;;;;;;;13.38;6.88;;;12.00;99.90;;;;;;5056981;28;20191;-76
2022/10/30 04:26:57;;;;;;;8.77;7.13;;;12.00;99.90;;;;;;5056509;28;20227;-76
2022/10/30 04:29:23;;;;;;;8.82;6.90;;;12.00;99.90;;;;;;5057284;28;20176;-76
2022/10/30 04:31:48;;;;;;;8.48;7.03;;;12.00;99.90;;;;;;5055687;28;20177;-76
2022/10/30 04:34:14;;;;;;;10.27;7.00;;;12.00;99.90;;;;;;5057884;28;20670;-76
2022/10/30 04:36:40;;;;;;;11.43;7.80;;;11.90;99.90;;;;;;5059849;28;20196;-76
2022/10/30 04:39:05;;;;;;;11.73;7.00;;;11.90;99.90;;;;;;5059831;28;20204;-77
2022/10/30 04:41:31;;;;;;;11.70;7.65;;;11.80;99.90;;;;;;5058521;28;20668;-76
2022/10/30 04:43:56;;;;;;;9.98;7.38;;;11.80;99.90;;;;;;5058952;28;20176;-76
2022/10/30 04:46:22;;;;;;;11.52;7.70;;;11.70;99.90;;;;;;5062274;28;20893;-75
2022/10/30 04:48:47;;;;;;;11.50;7.35;;;11.70;99.90;;;;;;5060601;28;20183;-75
2022/10/30 04:51:13;;;;;;;11.30;7.60;;;11.70;99.90;;;;;;5055593;28;20187;-77
2022/10/30 04:53:39;;;;;;;9.27;7.57;;;11.80;99.90;;;;;;5063080;28;20171;-76
2022/10/30 04:56:05;;;;;;;12.77;7.75;;;11.80;99.90;;;;;;5060448;28;20199;-76
2022/10/30 04:58:31;;;;;;;12.18;7.28;;;11.80;99.90;;;;;;5057693;28;20213;-77
2022/10/30 05:01:01;;;;;;;11.68;7.60;;;11.70;99.90;;;;;;5060261;28;20231;-77
2022/10/30 05:03:27;;;;;;;12.05;7.45;;;11.70;99.90;;;;;;5054684;28;20222;-76
2022/10/30 05:06:00;;;;;;;10.77;7.70;;;11.70;99.90;;;;;;5054441;28;20233;-76
2022/10/30 05:08:26;;;;;;;9.27;7.53;;;11.60;99.90;;;;;;5056377;28;20183;-76
2022/10/30 05:10:53;;;;;;;13.98;7.70;;;11.60;99.90;;;;;;5059536;28;20732;-76
2022/10/30 05:13:18;;;;;;;9.30;7.38;;;11.50;99.90;;;;;;5060241;28;20188;-76
2022/10/30 05:15:44;;;;;;;11.93;7.78;;;11.50;99.90;;;;;;5054828;28;20261;-76
2022/10/30 05:18:10;;;;;;;12.52;7.78;;;11.50;99.90;;;;;;5057311;28;20242;-76
2022/10/30 05:20:36;;;;;;;12.73;7.93;;;11.50;99.90;;;;;;5055474;28;20207;-76
2022/10/30 05:23:01;;;;;;;8.10;7.30;;;11.50;99.90;;;;;;5059500;28;20323;-76
2022/10/30 05:25:27;;;;;;;9.80;7.45;;;11.50;99.90;;;;;;5057160;28;20196;-76
2022/10/30 05:27:58;;;;;;;9.60;7.57;;;11.50;99.90;;;;;;5060406;28;20211;-76
2022/10/30 05:30:24;;;;;;;10.45;7.03;;;11.50;99.90;;;;;;5054739;28;20532;-76
2022/10/30 05:32:50;;;;;;;11.90;7.95;;;11.50;99.90;;;;;;5054054;28;20175;-77
2022/10/30 05:35:15;;;;;;;10.40;7.80;;;11.40;99.90;;;;;;5058924;28;20222;-75
2022/10/30 05:37:41;;;;;;;8.05;7.22;;;11.40;99.90;;;;;;5052694;28;20207;-76
2022/10/30 05:40:07;;;;;;;9.38;7.63;;;11.30;99.90;;;;;;5058664;28;20526;-76
2022/10/30 05:42:33;;;;;;;8.63;7.32;;;11.30;99.90;;;;;;5059580;28;20167;-76
2022/10/30 05:44:58;;;;;;;11.35;8.05;;;11.30;99.90;;;;;;5055728;28;20191;-75
2022/10/30 05:47:24;;;;;;;12.68;7.32;;;11.20;99.90;;;;;;5059514;28;20562;-75
2022/10/30 05:49:50;;;;;;;11.93;8.88;;;11.20;99.90;;;;;;5054116;28;20178;-76
2022/10/30 05:52:15;;;;;;;8.15;7.35;;;11.20;99.90;;;;;;5054176;28;20190;-76
2022/10/30 05:54:41;;;;;;;13.07;7.88;;;11.20;99.90;;;;;;5053916;28;20552;-76
2022/10/30 05:57:06;;;;;;;12.07;7.68;;;11.20;99.90;;;;;;5054521;28;20199;-78
2022/10/30 05:59:32;;;;;;;8.05;7.25;;;11.20;99.90;;;;;;5056596;28;20250;-77
2022/10/30 06:01:57;;;;;;;13.65;8.52;;;11.20;99.90;;;;;;5057477;28;20172;-77
2022/10/30 06:04:23;;;;;;;10.10;7.72;;;11.20;99.90;;;;;;5053314;28;20183;-77
2022/10/30 06:06:49;;;;;;;9.93;7.35;;;11.20;99.90;;;;;;5052469;28;20258;-77
2022/10/30 06:09:14;;;;;;;18.50;9.05;;;11.20;99.90;;;;;;5056141;28;20262;-76
2022/10/30 06:11:40;;;;;;;12.23;7.68;;;11.30;99.90;;;;;;5052632;28;20188;-77
2022/10/30 06:14:05;;;;;;;12.57;7.18;;;11.30;99.90;;;;;;5054306;28;20199;-76
2022/10/30 06:16:31;;;;;;;10.90;8.35;;;11.30;99.90;;;;;;5057940;28;20238;-76
2022/10/30 06:18:56;;;;;;;12.15;7.95;;;11.30;99.90;;;;;;5052859;28;20218;-76
2022/10/30 06:21:22;;;;;;;14.38;8.38;;;11.30;99.90;;;;;;5053415;28;20195;-75
2022/10/30 06:23:48;;;;;;;10.13;7.05;;;11.30;99.90;;;;;;5054398;28;20176;-77
2022/10/30 06:26:14;;;;;;;8.50;7.60;;;11.40;99.90;;;;;;5054164;28;20200;-77
2022/10/30 06:28:39;;;;;;;10.35;7.90;;;11.40;99.90;;;;;;5070914;28;20184;-78
2022/10/30 06:31:05;;;;;;;12.10;7.38;;;11.40;99.90;;;;;;5075191;28;20175;-78
2022/10/30 06:33:31;;;;;;;12.13;7.78;;;11.50;99.90;;;;;;5068525;28;20644;-79
2022/10/30 06:35:57;;;;;;;10.23;8.32;;;11.60;99.90;;;;;;5064008;28;20249;-78
2022/10/30 06:38:22;;;;;;;11.38;8.05;;;11.70;99.90;;;;;;5063339;28;20203;-78
2022/10/30 06:40:48;;;;;;;11.63;8.55;;;11.80;99.90;;;;;;5057079;28;20634;-78
2022/10/30 06:43:14;;;;;;;12.68;7.30;;;11.90;99.90;;;;;;5060638;28;20183;-79
2022/10/30 06:45:39;;;;;;;12.63;8.45;;;12.00;99.90;;;;;;5059376;28;20242;-79
2022/10/30 06:48:05;;;;;;;9.98;7.57;;;12.00;99.90;;;;;;5065059;28;20275;-79
2022/10/30 06:50:31;;;;;;;11.30;7.80;;;12.10;99.90;;;;;;5057893;28;20195;-78
2022/10/30 06:52:56;;;;;;;11.30;7.90;;;12.20;99.90;;;;;;5059775;28;20184;-77
2022/10/30 06:55:22;;;;;;;11.98;7.63;;;12.30;99.90;;;;;;5057620;28;20705;-77
2022/10/30 06:57:55;;;;;;;10.65;7.45;;;12.40;99.90;;;;;;5057148;28;20199;-77
2022/10/30 07:00:21;;;;;;;8.75;7.00;;;12.50;99.90;;;;;;5061480;28;20652;-77
2022/10/30 07:03:00;;;;;;;14.55;7.20;;;12.60;99.90;;;;;;5061067;28;20254;-77
2022/10/30 07:05:26;;;;;;;12.13;7.60;;;12.70;99.90;;;;;;5060837;28;20206;-77
2022/10/30 07:07:54;;;;;;;10.38;7.70;;;12.70;99.90;;;;;;5058568;28;20183;-76
2022/10/30 07:10:20;;;;;;;12.65;8.02;;;12.80;99.90;;;;;;5058604;28;20188;-78
2022/10/30 07:12:53;;;;;;;10.70;7.38;;;12.80;99.90;;;;;;5060902;28;20186;-77
2022/10/30 07:15:18;;;;;;;9.57;7.45;;;12.90;99.90;;;;;;5059588;28;20532;-78
2022/10/30 07:17:51;;;;;;;12.18;8.15;;;13.00;99.90;;;;;;5061110;28;20199;-77
2022/10/30 07:20:17;;;;;;;11.48;7.57;;;13.00;99.90;;;;;;5060322;28;20211;-74
2022/10/30 07:22:42;;;;;;;9.55;7.95;;;13.10;99.90;;;;;;5058752;28;20187;-75
2022/10/30 07:25:08;;;;;;;10.63;7.43;;;13.20;99.90;;;;;;5054728;28;20639;-76
2022/10/30 07:27:44;;;;;;;10.13;7.93;;;13.20;99.90;;;;;;5055440;28;20180;-75
2022/10/30 07:30:18;;;;;;;10.32;8.85;;;13.20;99.90;;;;;;5058574;28;20194;-76
2022/10/30 07:32:44;;;;;;;14.30;8.25;;;13.20;99.90;;;;;;5056744;28;20216;-80
2022/10/30 07:35:12;;;;;;;13.15;8.65;;;13.30;99.90;;;;;;5057512;28;20588;-80
2022/10/30 07:37:38;;;;;;;11.95;8.55;;;13.40;99.90;;;;;;5060671;28;20724;-75
2022/10/30 07:40:04;;;;;;;9.82;8.02;;;13.40;99.90;;;;;;5060618;28;20263;-75
2022/10/30 07:42:30;;;;;;;10.77;8.02;;;13.50;99.90;;;;;;5062697;28;20225;-77
2022/10/30 07:44:56;;;;;;;15.40;7.95;;;13.60;99.90;;;;;;5060482;28;20184;-75
2022/10/30 07:47:22;;;;;;;12.05;7.28;;;13.70;99.90;;;;;;5057069;28;20569;-75
2022/10/30 07:49:47;;;;;;;10.15;8.07;;;13.90;99.90;;;;;;5059225;28;20189;-75
2022/10/30 07:52:13;;;;;;;16.10;7.82;;;14.00;99.90;;;;;;5058780;28;20211;-75
2022/10/30 07:54:39;;;;;;;10.30;7.65;;;14.10;99.90;;;;;;5056980;28;20199;-76
2022/10/30 07:57:04;;;;;;;11.63;8.10;;;14.20;99.90;;;;;;5063931;28;20203;-75
2022/10/30 07:59:30;;;;;;;12.48;7.50;;;14.40;99.90;;;;;;5068320;28;20874;-75
2022/10/30 08:02:02;;;;;;;11.73;7.95;;;14.60;99.90;;;;;;5073212;28;20309;-79
2022/10/30 08:04:27;;;;;;;10.80;8.02;;;14.80;99.90;;;;;;5064831;28;20586;-75
2022/10/30 08:06:53;;;;;;;11.10;8.10;;;15.00;99.90;;;;;;5055944;28;20203;-76
2022/10/30 08:09:18;;;;;;;8.30;7.25;;;15.10;99.90;;;;;;5061019;28;20192;-76
2022/10/30 08:11:44;;;;;;;12.30;7.78;;;15.30;99.90;;;;;;5056621;28;20634;-75
2022/10/30 08:14:10;;;;;;;11.00;7.80;;;15.50;99.90;;;;;;5064789;28;20176;-77
2022/10/30 08:16:35;;;;;;;11.77;7.28;;;15.60;99.90;;;;;;5070147;28;20199;-77
2022/10/30 08:19:01;;;;;;;11.32;7.20;;;15.70;99.90;;;;;;5073728;28;20673;-79
2022/10/30 08:21:26;;;;;;;8.57;7.07;;;15.90;99.90;;;;;;5076286;28;20258;-78
2022/10/30 08:23:52;;;;;;;9.10;6.72;;;16.10;99.90;;;;;;5074103;28;20184;-78
2022/10/30 08:26:18;;;;;;;13.10;8.32;;;16.30;99.90;;;;;;5068429;28;20192;-80
2022/10/30 08:28:43;;;;;;;13.52;7.15;;;16.30;99.90;;;;;;5071372;28;20222;-79
2022/10/30 08:31:09;;;;;;;10.57;7.60;;;16.50;99.90;;;;;;5068616;28;20200;-78
2022/10/30 08:33:34;;;;;;;10.48;7.55;;;16.80;99.90;;;;;;5066751;28;20190;-75
2022/10/30 08:36:01;;;;;;;11.73;7.25;;;17.00;99.90;;;;;;5066920;28;20206;-75
2022/10/30 08:38:27;;;;;;;10.70;7.13;;;17.20;99.90;;;;;;5062840;28;20199;-77
2022/10/30 08:40:53;;;;;;;8.82;6.32;;;17.30;99.90;;;;;;5058215;28;20203;-74
2022/10/30 08:43:19;;;;;;;10.80;7.22;;;17.50;99.90;;;;;;5058132;28;20179;-77
2022/10/30 08:45:45;;;;;;;10.15;7.22;;;17.60;99.90;;;;;;5059233;28;20210;-76
2022/10/30 08:48:12;;;;;;;12.70;7.32;;;17.70;99.90;;;;;;5060131;28;20180;-76
2022/10/30 08:50:38;;;;;;;8.73;7.50;;;17.90;99.90;;;;;;5055218;28;20180;-76
2022/10/30 08:53:07;;;;;;;8.30;7.22;;;18.10;99.90;;;;;;5059345;28;20198;-76
2022/10/30 08:55:33;;;;;;;9.07;6.90;;;18.40;99.90;;;;;;5058509;28;20195;-78
2022/10/30 08:57:59;;;;;;;8.43;6.18;;;18.60;99.90;;;;;;5056617;28;20295;-78
2022/10/30 09:00:25;;;;;;;9.50;7.03;;;18.80;99.90;;;;;;5061797;28;20207;-77
2022/10/30 09:02:52;;;;;;;10.25;6.55;;;19.10;99.90;;;;;;5062391;28;20692;-76
2022/10/30 09:05:17;;;;;;;11.90;7.35;;;19.30;99.90;;;;;;5059945;28;20183;-76
2022/10/30 09:07:43;;;;;;;14.07;6.25;;;19.50;99.90;;;;;;5058417;28;20266;-75
2022/10/30 09:10:09;;;;;;;7.38;6.13;;;20.00;99.90;;;;;;5055425;28;20703;-76
2022/10/30 09:12:35;;;;;;;10.63;7.25;;;20.50;99.90;;;;;;5052917;28;20167;-76
2022/10/30 09:15:01;;;;;;;10.13;7.32;;;21.00;99.90;;;;;;5055824;28;20651;-76
2022/10/30 09:17:26;;;;;;;8.27;6.40;;;21.40;99.90;;;;;;5056048;28;20207;-75
2022/10/30 09:19:52;;;;;;;9.00;6.35;;;21.90;99.90;;;;;;5057323;28;20179;-76
2022/10/30 09:22:17;;;;;;;7.10;5.88;;;22.20;99.90;;;;;;5054818;28;20226;-75
2022/10/30 09:24:43;;;;;;;7.10;6.15;;;22.50;99.90;;;;;;5053548;28;20293;-76
2022/10/30 09:27:09;;;;;;;8.75;6.03;;;22.80;99.90;;;;;;5054513;28;20222;-75
2022/10/30 09:29:34;;;;;;;11.20;7.28;;;23.00;99.90;;;;;;5072806;28;20217;-77
2022/10/30 09:32:03;;;;;;;7.53;6.10;;;23.40;99.90;;;;;;5058002;28;20259;-77
2022/10/30 09:34:29;;;;;;;11.05;6.55;;;23.90;99.90;;;;;;5057271;28;20182;-76
2022/10/30 09:36:55;;;;;;;8.68;5.95;;;24.40;99.90;;;;;;5058830;28;20257;-76
2022/10/30 09:39:21;;;;;;;11.73;6.15;;;25.10;99.90;;;;;;5055076;28;20556;-75
2022/10/30 09:42:16;;;;;;;9.60;6.05;;;25.90;99.30;;;;;;5056774;28;20174;-76
2022/10/30 09:44:42;;;;;;;13.10;6.40;;;26.40;96.80;;;;;;5055259;28;20201;-74
2022/10/30 09:47:37;;;;;;;11.43;6.32;;;26.70;95.00;;;;;;5062808;28;20746;-73
2022/10/30 09:50:28;;;;;;;10.48;5.18;;;27.40;93.30;;;;;;5062399;28;20180;-76
2022/10/30 09:53:02;;;;;;;7.80;5.43;;;28.80;90.40;;;;;;5057926;28;20185;-74
2022/10/30 09:56:02;;;;;;;8.73;5.70;;;30.10;83.70;;;;;;5054201;28;21904;-74
2022/10/30 09:58:46;;;;;;;10.50;6.03;;;31.10;76.30;;;;;;5054271;28;20221;-74
2022/10/30 10:01:45;;;;;;;10.48;6.43;;;31.20;72.80;;;;;;5052128;28;20665;-74
2022/10/30 10:04:31;;;;;;;9.43;5.88;;;31.40;70.80;;;;;;5054305;28;20206;-74
2022/10/30 10:07:15;;;;;;;8.13;5.75;;;32.00;68.00;;;;;;5052116;28;20601;-76
2022/10/30 10:09:42;;;;;;;7.78;5.72;;;32.60;66.50;;;;;;5054859;28;20523;-74
2022/10/30 10:12:32;;;;;;;6.13;4.85;;;33.10;64.00;;;;;;5055203;28;20206;-75
2022/10/30 10:15:03;;;;;;;7.75;5.20;;;33.60;61.60;;;;;;5057810;28;20179;-74
2022/10/30 10:17:40;;;;;;;6.97;4.68;;;34.20;58.90;;;;;;5055443;28;20320;-74
2022/10/30 10:20:25;;;;;;;9.60;5.60;;;34.40;58.80;;;;;;5053139;28;20186;-74
2022/10/30 10:22:51;;;;;;;9.90;5.53;;;34.40;58.10;;;;;;5050715;28;20771;-74
2022/10/30 10:25:19;;;;;;;8.68;5.03;;;34.90;57.00;;;;;;5053483;28;20194;-74
2022/10/30 10:28:02;;;;;;;7.63;5.07;;;34.70;56.70;;;;;;5053079;28;20167;-75
2022/10/30 10:30:37;;;;;;;7.18;5.53;;;34.50;56.30;;;;;;5054509;28;20174;-74
2022/10/30 10:33:32;;;;;;;9.07;5.07;;;34.70;55.50;;;;;;5055195;28;20186;-74
2022/10/30 10:36:27;;;;;;;8.73;5.25;;;34.70;56.10;;;;;;5063980;28;20201;-72
2022/10/30 10:39:20;;;;;;;8.65;5.57;;;34.50;55.70;;;;;;5061747;28;20302;-74
2022/10/30 10:42:09;;;;;;;10.07;5.53;;;34.10;56.20;;;;;;5056074;28;20709;-74
2022/10/30 10:44:46;;;;;;;7.15;5.55;;;33.70;57.10;;;;;;5062283;28;20195;-74
2022/10/30 10:47:58;;;;;;;7.00;5.13;;;33.70;56.80;;;;;;5060477;28;20245;-75
2022/10/30 10:50:27;;;;;;;8.70;4.82;;;33.70;56.20;;;;;;5036578;28;20905;-74
2022/10/30 10:53:09;;;;;;;8.50;4.97;;;34.40;56.20;;;;;;5067867;28;20187;-74
2022/10/30 10:55:37;;;;;;;11.82;6.70;;;34.20;56.50;;;;;;5060274;28;20190;-74
2022/10/30 10:58:17;;;;;;;11.50;7.10;;;34.60;56.00;;;;;;5059677;28;20237;-73
2022/10/30 11:00:45;;;;;;;11.55;7.05;;;35.30;54.90;;;;;;5062051;28;20181;-71
2022/10/30 11:03:26;;;;;;;11.02;6.97;;;35.60;54.60;;;;;;5059082;28;20593;-72
2022/10/30 11:06:10;;;;;;;17.80;9.98;;;36.10;53.50;;;;;;5055887;28;20192;-71
2022/10/30 11:08:36;;;;;;;10.38;5.22;;;36.50;53.10;;;;;;5060554;28;20177;-71
2022/10/30 11:11:06;;;;;;;9.73;5.78;;;36.70;52.10;;;;;;5058215;28;20175;-71
2022/10/30 11:13:37;;;;;;;9.73;4.68;;;36.90;51.30;;;;;;5055596;28;20696;-72
2022/10/30 11:16:24;;;;;;;13.70;6.88;;;36.90;51.30;;;;;;5062125;28;20211;-72
2022/10/30 11:19:00;;;;;;;9.38;5.70;;;37.50;51.00;;;;;;5058232;28;20203;-71
2022/10/30 11:21:27;;;;;;;9.73;5.32;;;37.80;50.30;;;;;;5061166;28;21107;-72
2022/10/30 11:23:52;;;;;;;4.80;4.32;;;38.20;49.30;;;;;;5065544;28;20179;-72
2022/10/30 11:26:19;;;;;;;8.57;4.40;;;38.30;48.60;;;;;;5057206;28;20611;-71
2022/10/30 11:28:51;;;;;;;10.95;5.43;;;38.50;49.10;;;;;;5052665;28;20253;-71
2022/10/30 11:31:21;;;;;;;7.20;4.13;;;38.70;48.40;;;;;;5059457;28;20179;-73
2022/10/30 11:33:47;;;;;;;6.28;4.88;;;39.00;47.20;;;;;;5059554;28;20178;-71
2022/10/30 11:36:18;;;;;;;7.60;4.45;;;39.10;47.00;;;;;;5051962;28;20248;-70
2022/10/30 11:38:44;;;;;;;7.72;4.95;;;38.80;47.30;;;;;;5054812;28;20217;-69
2022/10/30 11:41:11;;;;;;;8.68;4.72;;;38.70;47.90;;;;;;5054980;28;20254;-71
2022/10/30 11:43:38;;;;;;;8.23;4.15;;;38.40;48.40;;;;;;5055848;28;20180;-71
2022/10/30 11:46:08;;;;;;;7.90;4.45;;;38.30;47.70;;;;;;5056725;28;20302;-71
2022/10/30 11:48:38;;;;;;;9.00;4.55;;;38.10;47.80;;;;;;5055923;28;20553;-71
2022/10/30 11:51:04;;;;;;;8.55;4.82;;;37.80;48.00;;;;;;5055762;28;20705;-70
2022/10/30 11:53:34;;;;;;;8.80;4.88;;;37.80;47.50;;;;;;5054417;28;20186;-69
2022/10/30 11:56:02;;;;;;;7.15;4.45;;;37.80;48.10;;;;;;5051826;28;20199;-70
2022/10/30 11:58:35;;;;;;;10.50;4.68;;;37.70;48.30;;;;;;5057712;28;20230;-73
2022/10/30 12:01:31;;;;;;;6.50;4.93;;;37.90;47.80;;;;;;5057163;28;20182;-73
2022/10/30 12:04:14;;;;;;;9.40;4.60;;;38.20;48.00;;;;;;5053196;28;20673;-70
2022/10/30 12:06:40;;;;;;;4.93;4.30;;;38.80;47.20;;;;;;5055232;28;20190;-70
2022/10/30 12:09:11;;;;;;;8.25;4.00;;;38.90;47.10;;;;;;5057423;28;20545;-71
2022/10/30 12:11:38;;;;;;;14.07;5.55;;;38.80;47.10;;;;;;5053749;28;20229;-71
2022/10/30 12:14:05;;;;;;;9.68;4.72;;;39.00;46.60;;;;;;5057840;28;20187;-71
2022/10/30 12:16:32;;;;;;;9.68;4.75;;;39.10;46.50;;;;;;5057344;28;20677;-71
2022/10/30 12:19:14;;;;;;;5.63;4.75;;;39.00;46.70;;;;;;5055893;28;20214;-70
2022/10/30 12:21:49;;;;;;;5.63;3.85;;;38.90;47.10;;;;;;5054801;28;20173;-71
2022/10/30 12:24:32;;;;;;;8.75;4.60;;;39.00;46.60;;;;;;5054463;28;20175;-70
2022/10/30 12:27:05;;;;;;;6.38;4.50;;;38.70;46.50;;;;;;5055345;28;20704;-71
2022/10/30 12:29:57;;;;;;;9.88;5.05;;;38.30;46.80;;;;;;5058208;28;20186;-70
2022/10/30 12:32:31;;;;;;;5.85;4.22;;;38.00;47.40;;;;;;5056824;28;20211;-70
2022/10/30 12:35:22;;;;;;;7.53;4.95;;;37.70;47.60;;;;;;5058072;28;20178;-71
2022/10/30 12:37:51;;;;;;;7.90;4.30;;;37.50;47.60;;;;;;5057406;28;20214;-73
2022/10/30 12:40:29;;;;;;;8.48;4.60;;;37.40;47.20;;;;;;5058358;28;20552;-72
2022/10/30 12:43:23;;;;;;;6.03;4.40;;;37.00;48.40;;;;;;5061214;28;20552;-72
2022/10/30 12:45:51;;;;;;;10.63;4.70;;;36.70;48.00;;;;;;5067177;28;20211;-72
2022/10/30 12:48:32;;;;;;;8.48;4.00;;;36.00;48.60;;;;;;5057588;28;20525;-72
2022/10/30 12:51:22;;;;;;;7.55;4.13;;;35.20;50.00;;;;;;5070588;28;20731;-71
2022/10/30 12:53:57;;;;;;;10.38;4.50;;;34.80;50.90;;;;;;5055238;28;20186;-71
2022/10/30 12:56:37;;;;;;;8.50;4.10;;;35.00;50.20;;;;;;5058456;28;20206;-72